»·PEaware :: N47DT KRAL-KSBA

N47DT :: KRAL-KSBA

FLIGHT INFORMATION

Flight Status: Arrived
Operator: Privately registered:
United States
More flights under this callsign
Pilot: Wayne C. (13792)
Aircraft: CESSNA 210 CENTURION
(C210)
More flights by this aircraft type
Origin: KRAL Riverside Mun
United States
Destination: KSBA Santa Barbara Mun
United States
More flights between these airports :: More routes between these airports
Route: +PDZ V186 DEANO V27 KWANG
File this flight plan on PilotEdge
Remarks:
Altitude:
(Current/Filed)
6,000ft
Speed:
(Current/Filed)
110kts
Departed: 03-Nov-18 02:18 PM
Arrived: 03-Nov-18 03:25 PM
Distance/Time
Traveled:
123nm/1:07
Distance/Time
To Go:
Arrived

Flight Plot

Page will automatically refresh every two minutes.


Map Options




Map Legend


Flown Route
Filed Route
Departure Airport
Arrival Airport
Navaid (VOR, NDB)
Fix

Horizontal Profiles

Position Reports

Time Latitude Longitude Heading Altitude Ground
Speed
03-Nov-18 14:10 33.951031 -117.446190 104 777ft 0kts
03-Nov-18 14:11 33.951031 -117.446190 104 777ft 0kts
03-Nov-18 14:12 33.951031 -117.446190 104 777ft 0kts
03-Nov-18 14:13 33.951031 -117.446190 104 777ft 0kts
03-Nov-18 14:14 33.951031 -117.446190 104 777ft 0kts
03-Nov-18 14:15 33.951279 -117.444461 104 777ft 12kts
03-Nov-18 14:16 33.950439 -117.438051 103 777ft 23kts
03-Nov-18 14:17 33.949813 -117.434847 44 777ft 0kts
03-Nov-18 14:18 33.949813 -117.434847 44 777ft 0kts
03-Nov-18 14:19 33.949813 -117.434847 44 777ft 0kts
03-Nov-18 14:20 33.950701 -117.435591 281 777ft 23kts
03-Nov-18 14:21 33.955436 -117.457490 269 1373ft 75kts
03-Nov-18 14:22 33.944251 -117.480003 224 2065ft 86kts
03-Nov-18 14:23 33.929603 -117.501085 246 2747ft 81kts
03-Nov-18 14:24 33.924301 -117.526716 266 3409ft 77kts
03-Nov-18 14:25 33.928975 -117.552028 293 3992ft 79kts
03-Nov-18 14:26 33.937571 -117.575090 293 4645ft 72kts
03-Nov-18 14:27 33.943435 -117.597611 292 5250ft 73kts
03-Nov-18 14:28 33.950724 -117.620914 289 5784ft 74kts
03-Nov-18 14:29 33.957091 -117.645733 288 6083ft 83kts
03-Nov-18 14:30 33.965768 -117.675893 291 6178ft 118kts
03-Nov-18 14:30 33.975986 -117.709566 297 6052ft 128kts
03-Nov-18 14:32 34.000082 -117.747536 287 6025ft 130kts
03-Nov-18 14:32 34.004950 -117.782110 293 6085ft 122kts
03-Nov-18 14:34 34.021093 -117.826803 298 5980ft 127kts
03-Nov-18 14:35 34.035123 -117.863405 292 6117ft 115kts
03-Nov-18 14:35 34.045786 -117.894145 292 6083ft 120kts
03-Nov-18 14:36 34.058073 -117.930547 290 6167ft 116kts
03-Nov-18 14:37 34.069806 -117.967249 287 6145ft 120kts
03-Nov-18 14:38 34.081437 -118.004877 290 6158ft 117kts
03-Nov-18 14:39 34.094269 -118.042163 288 6103ft 118kts
03-Nov-18 14:40 34.107127 -118.078637 289 6091ft 121kts
03-Nov-18 14:41 34.118240 -118.116701 284 6059ft 120kts
03-Nov-18 14:42 34.125269 -118.155620 273 6062ft 118kts
03-Nov-18 14:43 34.132780 -118.193746 284 6097ft 119kts
03-Nov-18 14:44 34.142407 -118.231153 286 6185ft 117kts
03-Nov-18 14:45 34.153148 -118.268675 284 6290ft 114kts
03-Nov-18 14:46 34.159693 -118.309719 279 6123ft 131kts
03-Nov-18 14:47 34.158165 -118.353412 265 6126ft 131kts
03-Nov-18 14:48 34.157950 -118.397072 282 6113ft 124kts
03-Nov-18 14:49 34.166338 -118.437607 288 6015ft 131kts
03-Nov-18 14:50 34.173988 -118.478250 283 6097ft 125kts
03-Nov-18 14:51 34.178456 -118.520200 280 6072ft 125kts
03-Nov-18 14:52 34.182129 -118.562011 278 6044ft 125kts
03-Nov-18 14:53 34.186402 -118.603006 281 6073ft 121kts
03-Nov-18 14:54 34.192073 -118.643439 281 6074ft 120kts
03-Nov-18 14:55 34.196828 -118.682505 280 6067ft 122kts
03-Nov-18 14:56 34.200512 -118.722532 277 6106ft 118kts
03-Nov-18 14:57 34.206320 -118.760876 284 6147ft 118kts
03-Nov-18 14:58 34.214598 -118.799978 283 6103ft 117kts
03-Nov-18 14:59 34.222143 -118.837867 281 6103ft 119kts
03-Nov-18 15:00 34.228284 -118.876705 279 6151ft 113kts
03-Nov-18 15:01 34.233047 -118.915727 279 6091ft 118kts
03-Nov-18 15:02 34.236609 -118.954803 273 6129ft 114kts
03-Nov-18 15:04 34.241445 -118.993465 284 6098ft 114kts
03-Nov-18 15:05 34.246689 -119.031962 272 6055ft 117kts
03-Nov-18 15:06 34.249164 -119.069860 285 6088ft 118kts
03-Nov-18 15:07 34.254910 -119.108150 277 6112ft 117kts
03-Nov-18 15:08 34.259320 -119.146569 276 6155ft 120kts
03-Nov-18 15:09 34.264599 -119.187363 278 6057ft 124kts
03-Nov-18 15:10 34.270929 -119.227960 281 6025ft 124kts
03-Nov-18 15:11 34.276667 -119.268766 279 6014ft 122kts
03-Nov-18 15:12 34.278967 -119.309222 273 6026ft 124kts
03-Nov-18 15:13 34.282317 -119.351059 275 5693ft 117kts
03-Nov-18 15:14 34.286236 -119.390473 281 5462ft 121kts
03-Nov-18 15:15 34.294336 -119.430082 287 5454ft 112kts
03-Nov-18 15:16 34.306164 -119.467061 291 5210ft 124kts
03-Nov-18 15:17 34.314899 -119.506163 280 5075ft 122kts
03-Nov-18 15:18 34.323367 -119.542532 298 4779ft 104kts
03-Nov-18 15:19 34.336796 -119.575215 307 4272ft 116kts
03-Nov-18 15:20 34.354144 -119.605881 291 3856ft 116kts
03-Nov-18 15:21 34.363316 -119.642679 290 3472ft 111kts
03-Nov-18 15:22 34.374095 -119.678524 293 3067ft 115kts
03-Nov-18 15:23 34.392554 -119.710034 302 2536ft 122kts
03-Nov-18 15:24 34.409221 -119.745480 301 1895ft 118kts
03-Nov-18 15:25 34.424070 -119.779506 293 1091ft 112kts
03-Nov-18 15:26 34.428159 -119.812678 271 866ft 95kts
03-Nov-18 15:27 34.427450 -119.846298 276 22ft 89kts
03-Nov-18 15:28 34.426907 -119.851757 162 13ft 10kts

Navigation Log

Ident Type
Flight plan parsing failed, navigation log unavailable